Time;durP1;ratioP1;P1;durP2;ratioP2;P2;SDS_P1;SDS_P2;PMS_P1;PMS_P2;Temp;Humidity;BMP_temperature;BMP_pressure;BME280_temperature;BME280_humidity;BME280_pressure;Samples;Min_cycle;Max_cycle;Signal;HPM_P1;HPM_P2
2022/05/23 00:01:45;;;;;;;3.88;1.70;;;22.60;75.00;;;;;;5048461;28;20043;-68
2022/05/23 00:04:11;;;;;;;4.10;1.80;;;22.70;75.10;;;;;;5105901;28;20044;-68
2022/05/23 00:06:36;;;;;;;3.10;1.40;;;23.00;75.30;;;;;;5055926;28;20040;-67
2022/05/23 00:09:03;;;;;;;4.93;1.50;;;22.60;75.00;;;;;;5072070;28;20048;-68
2022/05/23 00:11:29;;;;;;;4.60;1.70;;;22.80;75.20;;;;;;5071792;28;20478;-67
2022/05/23 00:13:54;;;;;;;3.53;1.50;;;22.80;75.00;;;;;;5106203;28;20186;-62
2022/05/23 00:16:22;;;;;;;4.63;1.83;;;22.70;75.00;;;;;;5069949;28;20410;-62
2022/05/23 00:18:48;;;;;;;4.57;1.50;;;22.70;78.00;;;;;;5071573;28;20069;-62
2022/05/23 00:21:15;;;;;;;3.58;1.50;;;;;;;;;;5073058;28;20115;-66
2022/05/23 00:23:41;;;;;;;3.63;1.63;;;22.80;72.90;;;;;;5073524;28;20048;-63
2022/05/23 00:26:06;;;;;;;4.85;2.10;;;22.50;77.80;;;;;;5073426;28;20398;-62
2022/05/23 00:28:32;;;;;;;4.10;1.83;;;22.50;77.70;;;;;;5072891;28;20048;-62
2022/05/23 00:30:58;;;;;;;3.83;1.48;;;22.60;74.80;;;;;;5071756;28;20045;-63
2022/05/23 00:36:08;;;;;;;5.85;1.90;;;22.70;73.80;;;;;;5071300;28;20055;-62
2022/05/23 00:38:35;;;;;;;3.20;1.50;;;22.50;78.00;;;;;;5072435;28;20064;-62
2022/05/23 00:44:01;;;;;;;4.05;1.50;;;22.30;73.80;;;;;;5071438;28;20490;-62
2022/05/23 00:46:26;;;;;;;3.83;1.83;;;22.50;77.60;;;;;;5088145;28;20414;-62
2022/05/23 00:48:52;;;;;;;4.60;1.55;;;22.60;74.60;;;;;;5088156;28;20048;-62
2022/05/23 00:51:18;;;;;;;5.75;1.80;;;22.40;74.70;;;;;;5070578;28;20041;-62
2022/05/23 00:53:51;;;;;;;3.15;1.80;;;22.70;74.60;;;;;;5071537;28;20136;-63
2022/05/23 00:56:20;;;;;;;4.68;1.63;;;22.50;75.20;;;;;;5050754;28;20044;-63
2022/05/23 00:58:47;;;;;;;4.82;1.70;;;22.60;75.00;;;;;;5071332;28;20053;-63
2022/05/23 01:01:15;;;;;;;4.50;1.60;;;22.30;77.40;;;;;;5071050;28;20047;-62
2022/05/23 01:03:40;;;;;;;4.78;1.60;;;22.60;77.60;;;;;;5071130;28;20060;-62
2022/05/23 01:06:07;;;;;;;4.65;1.40;;;22.40;74.60;;;;;;5105508;28;20048;-62
2022/05/23 01:08:36;;;;;;;4.05;1.48;;;22.40;74.80;;;;;;5070367;28;20095;-63
2022/05/23 01:11:03;;;;;;;4.22;1.60;;;22.40;74.80;;;;;;5088491;28;20045;-62
2022/05/23 01:13:29;;;;;;;4.22;1.67;;;22.60;74.70;;;;;;5072260;28;20080;-65
2022/05/23 01:15:54;;;;;;;3.38;1.50;;;22.70;74.70;;;;;;5072210;28;20516;-62
2022/05/23 01:18:20;;;;;;;3.75;1.70;;;22.50;74.50;;;;;;5072558;28;20052;-63
2022/05/23 01:20:47;;;;;;;4.45;1.50;;;22.40;77.50;;;;;;5072296;28;20040;-63
2022/05/23 01:23:39;;;;;;;5.75;1.70;;;22.60;74.90;;;;;;5087959;28;20393;-63
2022/05/23 01:26:05;;;;;;;4.57;1.65;;;22.60;73.40;;;;;;5052575;28;20052;-63
2022/05/23 01:28:37;;;;;;;5.80;1.73;;;22.30;74.50;;;;;;5071104;28;20052;-62
2022/05/23 01:31:04;;;;;;;;;;;22.20;75.00;;;;;;5073259;28;20432;-62
2022/05/23 01:33:30;;;;;;;4.95;1.90;;;22.30;75.20;;;;;;5072646;28;19920;-63
2022/05/23 01:35:57;;;;;;;4.18;1.77;;;22.20;77.80;;;;;;5070398;28;20520;-64
2022/05/23 01:38:24;;;;;;;4.80;1.70;;;22.40;77.70;;;;;;5072647;28;20044;-62
2022/05/23 01:40:50;;;;;;;4.85;1.70;;;22.40;77.60;;;;;;5070592;28;20142;-63
2022/05/23 01:43:15;;;;;;;3.78;1.42;;;22.50;74.60;;;;;;5068783;28;20064;-64
2022/05/23 01:45:41;;;;;;;4.05;1.25;;;22.40;74.60;;;;;;5071861;28;20044;-63
2022/05/23 01:48:07;;;;;;;7.05;2.10;;;22.00;74.50;;;;;;5072569;28;20040;-62
2022/05/23 01:50:33;;;;;;;4.38;1.50;;;22.50;74.50;;;;;;5071292;28;20412;-63
2022/05/23 01:52:59;;;;;;;4.35;1.95;;;22.30;77.70;;;;;;5071897;28;20041;-62
2022/05/23 01:55:25;;;;;;;3.65;1.45;;;22.40;74.50;;;;;;5104634;28;20110;-63
2022/05/23 01:57:50;;;;;;;4.13;1.67;;;22.30;77.50;;;;;;5071819;28;20098;-63
2022/05/23 02:03:01;;;;;;;4.22;1.80;;;22.20;77.90;;;;;;5070393;28;20674;-64
2022/05/23 02:05:27;;;;;;;3.67;1.65;;;22.10;74.50;;;;;;5072195;28;20051;-62
2022/05/23 02:07:53;;;;;;;4.22;1.83;;;22.40;78.30;;;;;;5072149;28;20045;-63
2022/05/23 02:10:20;;;;;;;3.95;1.65;;;22.40;74.60;;;;;;5070516;28;20049;-63
2022/05/23 02:12:46;;;;;;;5.28;1.90;;;22.20;74.50;;;;;;5090260;28;20450;-65
2022/05/23 02:15:12;;;;;;;7.10;1.88;;;22.30;78.10;;;;;;5090811;28;20044;-63
2022/05/23 02:17:38;;;;;;;3.53;1.77;;;22.20;74.50;;;;;;5070934;28;20055;-62
2022/05/23 02:20:04;;;;;;;4.55;1.55;;;22.30;77.60;;;;;;5075699;28;20449;-63
2022/05/23 02:22:30;;;;;;;3.30;1.58;;;22.30;77.50;;;;;;5076131;28;20083;-62
2022/05/23 02:24:55;;;;;;;6.00;2.00;;;22.10;77.20;;;;;;5074206;28;20076;-63
2022/05/23 02:27:21;;;;;;;5.15;1.50;;;22.30;77.40;;;;;;5075578;28;20516;-62
2022/05/23 02:29:47;;;;;;;5.38;1.63;;;22.30;74.40;;;;;;5075782;28;20048;-63
2022/05/23 02:32:12;;;;;;;3.72;1.67;;;22.20;74.40;;;;;;5075197;28;20040;-62
2022/05/23 02:34:39;;;;;;;5.80;2.25;;;22.40;77.90;;;;;;5069692;28;20502;-63
2022/05/23 02:37:05;;;;;;;4.82;1.73;;;22.30;74.60;;;;;;5090496;28;20092;-63
2022/05/23 02:39:30;;;;;;;3.25;1.48;;;22.20;74.40;;;;;;5075497;28;20044;-63
2022/05/23 02:41:56;;;;;;;3.38;1.63;;;22.10;77.20;;;;;;5073755;28;20053;-67
2022/05/23 02:44:22;;;;;;;5.88;1.98;;;22.10;74.30;;;;;;5090671;28;20045;-63
2022/05/23 02:46:47;;;;;;;4.53;1.50;;;22.20;77.50;;;;;;5075457;28;20041;-62
2022/05/23 02:49:13;;;;;;;6.68;1.95;;;22.20;74.30;;;;;;5073753;28;20047;-63
2022/05/23 02:51:39;;;;;;;6.72;1.92;;;22.20;74.40;;;;;;5084779;28;20481;-63
2022/05/23 02:54:05;;;;;;;4.75;1.77;;;22.10;77.30;;;;;;5073126;28;20452;-62
2022/05/23 02:56:31;;;;;;;5.57;2.00;;;22.20;74.30;;;;;;5090780;28;20049;-63
2022/05/23 02:58:57;;;;;;;4.97;1.80;;;22.30;75.00;;;;;;5090707;28;20115;-64
2022/05/23 03:01:22;;;;;;;4.45;1.58;;;22.00;77.40;;;;;;5074808;28;20058;-63
2022/05/23 03:03:48;;;;;;;4.28;1.55;;;22.30;74.30;;;;;;5074888;28;20048;-63
2022/05/23 03:06:14;;;;;;;3.92;1.80;;;22.10;77.30;;;;;;5055261;28;20128;-62
2022/05/23 03:08:40;;;;;;;5.68;1.58;;;22.30;77.40;;;;;;5105288;28;20052;-62
2022/05/23 03:11:06;;;;;;;4.25;1.70;;;22.30;76.10;;;;;;5107422;28;20494;-63
2022/05/23 03:13:32;;;;;;;4.38;1.80;;;22.00;74.10;;;;;;5074515;28;20115;-62
2022/05/23 03:15:58;;;;;;;4.63;1.60;;;22.20;77.30;;;;;;5073602;28;20135;-62
2022/05/23 03:18:24;;;;;;;5.43;1.90;;;22.10;77.50;;;;;;5073268;28;20127;-63
2022/05/23 03:21:00;;;;;;;5.00;1.65;;;22.20;74.40;;;;;;5107180;28;20083;-62
2022/05/23 03:28:54;;;;;;;4.68;1.80;;;22.20;77.50;;;;;;5073151;28;20143;-63
2022/05/23 03:31:19;;;;;;;4.97;1.70;;;22.40;77.50;;;;;;5072942;28;20131;-62
2022/05/23 03:33:45;;;;;;;3.40;1.75;;;21.90;74.30;;;;;;5107030;28;20051;-62
2022/05/23 03:36:11;;;;;;;4.25;1.80;;;22.00;74.20;;;;;;5074376;28;20040;-63
2022/05/23 03:38:37;;;;;;;3.70;1.80;;;22.30;74.40;;;;;;5106060;28;20063;-62
2022/05/23 03:41:07;;;;;;;3.88;1.70;;;22.30;74.40;;;;;;5056312;28;20520;-62
2022/05/23 03:43:32;;;;;;;3.70;1.63;;;22.10;77.40;;;;;;5073391;28;20482;-62
2022/05/23 03:46:06;;;;;;;3.63;1.63;;;22.10;74.30;;;;;;5074214;28;20086;-62
2022/05/23 03:48:32;;;;;;;4.53;2.05;;;22.30;77.40;;;;;;5089183;28;20048;-62
2022/05/23 03:50:58;;;;;;;4.22;1.67;;;22.00;77.20;;;;;;5089571;28;20493;-62
2022/05/23 03:53:24;;;;;;;4.40;1.95;;;22.40;77.40;;;;;;5073757;28;20059;-62
2022/05/23 03:55:51;;;;;;;6.18;1.90;;;22.30;77.30;;;;;;5073621;28;20099;-63
2022/05/23 03:58:16;;;;;;;5.25;1.90;;;22.40;74.20;;;;;;5088777;28;20052;-65
2022/05/23 04:00:45;;;;;;;3.70;1.70;;;22.20;77.70;;;;;;5073412;28;20469;-63
2022/05/23 04:03:11;;;;;;;5.25;1.85;;;22.30;74.50;;;;;;5072828;28;20101;-63
2022/05/23 04:05:40;;;;;;;4.50;1.98;;;22.30;77.40;;;;;;5084545;28;20525;-63
2022/05/23 04:08:06;;;;;;;4.18;1.60;;;22.30;74.60;;;;;;5073649;28;20041;-63
2022/05/23 04:10:32;;;;;;;4.45;1.75;;;22.10;77.10;;;;;;5072349;28;20048;-66
2022/05/23 04:12:57;;;;;;;4.40;1.77;;;22.40;74.30;;;;;;5088878;28;20041;-63
2022/05/23 04:15:24;;;;;;;5.82;1.95;;;22.50;74.30;;;;;;5070678;28;20040;-67
2022/05/23 04:17:49;;;;;;;5.95;2.38;;;22.30;77.20;;;;;;5101341;28;20048;-65
2022/05/23 04:20:15;;;;;;;4.53;1.88;;;22.30;77.20;;;;;;5088985;28;20043;-63
2022/05/23 04:22:41;;;;;;;5.57;2.20;;;22.30;77.30;;;;;;5073332;28;20043;-63
2022/05/23 04:25:07;;;;;;;6.63;1.92;;;22.20;74.10;;;;;;5106264;28;20075;-65
2022/05/23 04:27:33;;;;;;;4.25;1.65;;;22.40;74.00;;;;;;5054964;28;20044;-63
2022/05/23 04:29:58;;;;;;;3.85;1.70;;;22.00;74.10;;;;;;5066919;28;20044;-63
2022/05/23 04:35:28;;;;;;;3.53;1.75;;;22.30;77.30;;;;;;5027049;28;20460;-63
2022/05/23 04:37:55;;;;;;;4.53;2.15;;;22.30;74.20;;;;;;5014350;28;20054;-67
2022/05/23 04:40:26;;;;;;;5.85;2.10;;;22.60;77.40;;;;;;5030918;28;20502;-68
2022/05/23 04:42:52;;;;;;;4.07;1.85;;;22.30;77.20;;;;;;5014354;28;20572;-68
2022/05/23 04:45:18;;;;;;;3.55;1.90;;;22.50;74.20;;;;;;5030992;28;20049;-68
2022/05/23 04:50:28;;;;;;;17.17;3.97;;;22.30;73.00;;;;;;5011276;28;20136;-62
2022/05/23 04:52:56;;;;;;;20.15;5.75;;;22.30;77.20;;;;;;5013900;28;20313;-63
2022/05/23 04:55:22;;;;;;;39.03;10.60;;;22.50;77.20;;;;;;5030662;28;20454;-64
2022/05/23 04:57:48;;;;;;;59.38;11.68;;;22.50;75.10;;;;;;5030052;28;20137;-63
2022/05/23 05:00:18;;;;;;;54.15;13.30;;;22.50;74.20;;;;;;5029212;28;20128;-63
2022/05/23 05:02:44;;;;;;;63.70;13.88;;;22.50;74.00;;;;;;5014202;28;20049;-63
2022/05/23 05:05:10;;;;;;;61.45;14.73;;;22.70;76.90;;;;;;5017101;28;20075;-63
2022/05/23 05:07:35;;;;;;;63.55;14.57;;;22.80;73.90;;;;;;5069375;28;20474;-62
2022/05/23 05:10:01;;;;;;;69.07;14.27;;;22.90;76.80;;;;;;5072536;28;20410;-65
2022/05/23 05:12:27;;;;;;;56.45;14.85;;;23.00;73.40;;;;;;5105159;28;20044;-63
2022/05/23 05:14:53;;;;;;;55.63;14.57;;;23.20;75.70;;;;;;5070524;28;20044;-65
2022/05/23 05:17:18;;;;;;;59.33;14.25;;;23.30;73.00;;;;;;5065521;28;20025;-62
2022/05/23 05:19:44;;;;;;;45.95;13.50;;;23.50;72.60;;;;;;5071368;28;20092;-68
2022/05/23 05:22:10;;;;;;;43.03;11.95;;;23.60;72.30;;;;;;5104862;28;20408;-62
2022/05/23 05:24:36;;;;;;;46.50;15.27;;;23.80;72.00;;;;;;5067764;28;20051;-63
2022/05/23 05:27:02;;;;;;;43.20;12.90;;;24.00;72.10;;;;;;5072327;28;20052;-68
2022/05/23 05:29:28;;;;;;;44.17;12.77;;;24.20;71.80;;;;;;5071091;28;20521;-68
2022/05/23 05:32:10;;;;;;;45.67;12.02;;;24.20;71.80;;;;;;5104635;28;20057;-67
2022/05/23 05:35:00;;;;;;;41.83;11.95;;;24.10;70.40;;;;;;5087531;28;20060;-68
2022/05/23 05:37:29;;;;;;;40.92;12.15;;;23.50;71.20;;;;;;5054429;28;20113;-69
2022/05/23 05:39:55;;;;;;;44.50;12.75;;;24.40;71.70;;;;;;5071108;28;20117;-69
2022/05/23 05:42:28;;;;;;;38.22;10.80;;;24.40;71.20;;;;;;5099453;28;20049;-68
2022/05/23 05:44:59;;;;;;;29.25;10.27;;;24.50;69.70;;;;;;5087122;28;20044;-68
2022/05/23 05:47:25;;;;;;;30.33;10.40;;;24.50;71.20;;;;;;5106628;28;20393;-68
2022/05/23 05:49:53;;;;;;;30.73;10.68;;;24.60;70.70;;;;;;5091984;28;20045;-68
2022/05/23 05:52:20;;;;;;;26.33;9.23;;;24.80;71.00;;;;;;5074727;28;20044;-62
2022/05/23 05:54:46;;;;;;;31.25;8.52;;;24.70;70.70;;;;;;5088331;28;20440;-62
2022/05/23 05:57:12;;;;;;;24.60;8.35;;;24.90;70.60;;;;;;5057362;28;20044;-63
2022/05/23 05:59:38;;;;;;;24.00;8.07;;;24.60;70.10;;;;;;5088290;28;20483;-64
2022/05/23 06:02:06;;;;;;;22.38;7.80;;;24.50;70.20;;;;;;5072317;28;20049;-65
2022/05/23 06:04:34;;;;;;;27.02;8.15;;;24.50;70.10;;;;;;5076140;28;20032;-62
2022/05/23 06:12:30;;;;;;;16.58;6.47;;;24.50;69.60;;;;;;5089065;28;20052;-62
2022/05/23 06:14:57;;;;;;;18.65;6.13;;;24.70;70.30;;;;;;5102046;28;20457;-62
2022/05/23 06:17:23;;;;;;;16.70;5.88;;;24.70;70.40;;;;;;5073791;28;20048;-63
2022/05/23 06:19:49;;;;;;;13.93;6.43;;;24.50;70.00;;;;;;5075769;28;20044;-62
2022/05/23 06:22:15;;;;;;;19.23;6.40;;;24.70;70.30;;;;;;5108016;28;20044;-62
2022/05/23 06:24:41;;;;;;;13.15;5.68;;;24.80;70.50;;;;;;5108226;28;20047;-63
2022/05/23 06:27:08;;;;;;;13.52;5.50;;;24.50;70.10;;;;;;5073300;28;20087;-63
2022/05/23 06:29:34;;;;;;;14.25;5.40;;;24.60;70.30;;;;;;5090961;28;20041;-63
2022/05/23 06:32:02;;;;;;;16.13;5.28;;;24.70;70.30;;;;;;5073391;28;20084;-63
2022/05/23 06:34:28;;;;;;;12.98;5.38;;;24.60;69.90;;;;;;5057805;28;20055;-63
2022/05/23 06:36:55;;;;;;;17.00;6.03;;;24.70;70.30;;;;;;5091347;28;20406;-63
2022/05/23 06:39:21;;;;;;;15.32;6.05;;;24.50;70.30;;;;;;5107653;28;20148;-63
2022/05/23 06:41:47;;;;;;;19.02;6.05;;;24.80;69.80;;;;;;5075242;28;20117;-63
2022/05/23 06:44:13;;;;;;;20.42;7.03;;;25.00;70.20;;;;;;5074765;28;20040;-63
2022/05/23 06:46:39;;;;;;;17.42;6.22;;;24.90;70.10;;;;;;5075441;28;20041;-63
2022/05/23 06:49:06;;;;;;;21.20;7.22;;;25.20;70.30;;;;;;5074850;28;20505;-64
2022/05/23 06:51:36;;;;;;;17.63;6.50;;;25.10;70.20;;;;;;5074768;28;20048;-65
2022/05/23 06:54:02;;;;;;;19.45;6.80;;;25.10;68.80;;;;;;5090475;28;20036;-64
2022/05/23 06:56:28;;;;;;;16.33;6.10;;;25.20;70.00;;;;;;5073270;28;20053;-64
2022/05/23 06:58:54;;;;;;;20.25;6.25;;;25.20;69.90;;;;;;5075055;28;20117;-64
2022/05/23 07:01:20;;;;;;;18.17;5.70;;;25.10;70.20;;;;;;5074598;28;20549;-64
2022/05/23 07:03:46;;;;;;;15.88;5.78;;;25.40;70.10;;;;;;5074593;28;20064;-65
2022/05/23 07:14:38;;;;;;;15.05;6.32;;;25.30;70.60;;;;;;4987942;28;20103;-68
2022/05/23 07:17:05;;;;;;;14.18;5.43;;;25.20;70.20;;;;;;5028895;28;20061;-68
2022/05/23 07:19:31;;;;;;;15.88;5.75;;;25.30;70.40;;;;;;5014232;28;20598;-68
2022/05/23 07:21:59;;;;;;;13.80;5.45;;;25.30;70.40;;;;;;5016058;28;20085;-68
2022/05/23 07:24:26;;;;;;;12.77;4.97;;;25.10;70.10;;;;;;5015771;28;20049;-67
2022/05/23 07:26:54;;;;;;;10.70;4.90;;;25.00;70.30;;;;;;5032223;28;20045;-68
2022/05/23 07:29:22;;;;;;;16.15;5.05;;;25.10;70.20;;;;;;5015616;28;20089;-67
2022/05/23 07:31:49;;;;;;;10.57;4.60;;;25.00;70.30;;;;;;4999547;28;20045;-67
2022/05/23 07:34:15;;;;;;;8.38;4.57;;;25.20;70.40;;;;;;4998927;28;20064;-67
2022/05/23 07:36:40;;;;;;;8.52;4.28;;;25.10;70.00;;;;;;4999131;28;20388;-67
2022/05/23 07:39:10;;;;;;;11.02;5.13;;;25.20;69.90;;;;;;4998977;28;20159;-66
2022/05/23 07:41:36;;;;;;;11.00;4.70;;;25.20;69.60;;;;;;5015062;28;20518;-67
2022/05/23 07:44:01;;;;;;;11.02;5.13;;;25.00;69.80;;;;;;5015072;28;20049;-67
2022/05/23 07:46:27;;;;;;;11.38;5.00;;;24.90;70.00;;;;;;5031592;28;20038;-66
2022/05/23 07:48:53;;;;;;;9.25;4.53;;;25.20;70.00;;;;;;5042535;28;20049;-65
2022/05/23 07:51:20;;;;;;;9.50;4.45;;;24.90;69.90;;;;;;5072944;28;20037;-67
2022/05/23 08:02:04;;;;;;;10.75;4.85;;;25.10;69.00;;;;;;5072952;28;20048;-67
2022/05/23 08:04:30;;;;;;;7.90;4.03;;;25.00;70.00;;;;;;5071491;28;20048;-66
2022/05/23 08:06:56;;;;;;;10.25;4.00;;;24.90;69.70;;;;;;5072052;28;20047;-67
2022/05/23 08:09:22;;;;;;;7.90;4.15;;;25.10;70.00;;;;;;5072745;28;20405;-67
2022/05/23 08:11:50;;;;;;;8.48;3.75;;;25.10;70.00;;;;;;5072438;28;20033;-67
2022/05/23 08:14:16;;;;;;;8.57;3.85;;;25.20;70.50;;;;;;5071109;28;20049;-67
2022/05/23 08:16:42;;;;;;;6.15;3.80;;;25.20;70.20;;;;;;5068360;28;20045;-68
2022/05/23 08:19:07;;;;;;;9.73;4.13;;;25.40;70.30;;;;;;5072009;28;20044;-68
2022/05/23 08:21:34;;;;;;;8.38;3.60;;;25.40;70.40;;;;;;5073175;28;20040;-67
2022/05/23 08:24:00;;;;;;;6.43;3.67;;;25.40;70.70;;;;;;5072037;28;20044;-68
2022/05/23 08:26:27;;;;;;;7.57;3.60;;;25.60;70.50;;;;;;5073270;28;20473;-63
2022/05/23 08:28:52;;;;;;;6.97;3.40;;;25.40;70.70;;;;;;5071890;28;20036;-64
2022/05/23 08:31:19;;;;;;;6.95;3.10;;;25.70;70.30;;;;;;5069673;28;20035;-64
2022/05/23 08:33:44;;;;;;;8.57;4.25;;;25.60;70.20;;;;;;5105669;28;20402;-66
2022/05/23 08:36:10;;;;;;;6.82;3.13;;;25.70;70.10;;;;;;5105110;28;20056;-63
2022/05/23 08:38:37;;;;;;;6.72;3.40;;;25.60;69.50;;;;;;5105399;28;20053;-63
2022/05/23 08:41:11;;;;;;;6.78;3.22;;;26.00;70.20;;;;;;5073304;28;20041;-63
2022/05/23 08:44:06;;;;;;;6.97;3.30;;;25.80;68.60;;;;;;5072397;28;20517;-65
2022/05/23 08:46:54;;;;;;;7.22;2.97;;;25.80;68.80;;;;;;5069505;28;20048;-63
2022/05/23 08:49:26;;;;;;;6.22;3.33;;;25.90;68.70;;;;;;5083632;28;20044;-63
2022/05/23 08:52:08;;;;;;;6.03;2.87;;;26.20;69.50;;;;;;5071349;28;20052;-63
2022/05/23 08:54:54;;;;;;;8.55;3.53;;;26.10;68.80;;;;;;5070563;28;20811;-65
2022/05/23 08:57:35;;;;;;;5.55;3.05;;;26.10;69.00;;;;;;5071629;28;20052;-66
2022/05/23 09:00:10;;;;;;;5.40;3.00;;;26.00;70.40;;;;;;5054548;28;20063;-66
2022/05/23 09:02:43;;;;;;;5.22;2.90;;;26.20;70.10;;;;;;5103943;28;20371;-64
2022/05/23 09:05:21;;;;;;;7.25;3.10;;;25.90;70.40;;;;;;5099993;28;20482;-64
2022/05/23 09:07:57;;;;;;;14.57;3.75;;;26.30;68.90;;;;;;5081269;28;20502;-67
2022/05/23 09:10:28;;;;;;;12.77;3.92;;;26.10;70.70;;;;;;5099647;28;20120;-67
2022/05/23 09:12:54;;;;;;;16.65;3.13;;;26.30;70.60;;;;;;5103880;28;20050;-67
2022/05/23 09:15:21;;;;;;;13.05;4.55;;;26.10;70.60;;;;;;5072650;28;20476;-64
2022/05/23 09:17:50;;;;;;;9.40;3.15;;;26.40;70.40;;;;;;5071046;28;20086;-63
2022/05/23 09:20:25;;;;;;;9.80;3.28;;;26.00;70.40;;;;;;5104359;28;20124;-67
2022/05/23 09:22:53;;;;;;;8.07;3.35;;;26.30;70.70;;;;;;5087376;28;20044;-67
2022/05/23 09:25:24;;;;;;;7.85;3.45;;;26.20;70.50;;;;;;5071442;28;20168;-65
2022/05/23 09:28:27;;;;;;;8.88;3.30;;;26.10;70.70;;;;;;5104736;28;20056;-65
2022/05/23 09:31:20;;;;;;;8.85;3.15;;;26.20;69.50;;;;;;5071000;28;20056;-66
2022/05/23 09:33:48;;;;;;;8.90;3.53;;;26.40;71.10;;;;;;5053442;28;20044;-64
2022/05/23 09:36:39;;;;;;;6.03;2.95;;;26.10;70.70;;;;;;5067694;28;20114;-66
2022/05/23 09:39:08;;;;;;;7.25;2.72;;;26.10;70.90;;;;;;4957144;28;20129;-68
2022/05/23 09:49:51;;;;;;;6.32;3.40;;;26.20;69.80;;;;;;4974196;28;20053;-63
2022/05/23 09:52:29;;;;;;;6.13;3.03;;;26.20;70.80;;;;;;4971459;28;20063;-64
2022/05/23 09:54:59;;;;;;;6.68;3.42;;;26.10;69.40;;;;;;4970695;28;20065;-64
2022/05/23 09:57:32;;;;;;;9.23;3.70;;;26.30;71.30;;;;;;4958140;28;20054;-63
2022/05/23 10:00:05;;;;;;;6.15;3.20;;;26.20;71.90;;;;;;4974684;28;20426;-69
2022/05/23 10:02:36;;;;;;;6.60;3.25;;;26.20;71.20;;;;;;4979556;28;20591;-68
2022/05/23 10:05:04;;;;;;;5.90;3.10;;;26.30;69.70;;;;;;4987024;28;20137;-67
2022/05/23 10:07:34;;;;;;;7.35;3.00;;;26.10;71.20;;;;;;4974472;28;20297;-68
2022/05/23 10:10:03;;;;;;;8.35;3.38;;;26.20;71.50;;;;;;4971274;28;20054;-68
2022/05/23 10:12:30;;;;;;;5.63;3.10;;;26.30;71.40;;;;;;4989216;28;20424;-67
2022/05/23 10:15:13;;;;;;;8.35;3.50;;;26.30;71.10;;;;;;4988480;28;20057;-68
2022/05/23 10:17:39;;;;;;;7.15;3.20;;;26.40;71.30;;;;;;5072114;28;20405;-68
2022/05/23 10:20:31;;;;;;;7.47;3.35;;;26.30;71.30;;;;;;5048959;28;20049;-67
2022/05/23 10:23:00;;;;;;;9.07;3.88;;;26.20;70.30;;;;;;5087702;28;20443;-68
2022/05/23 10:25:29;;;;;;;8.68;4.03;;;26.30;71.70;;;;;;5104020;28;20048;-68
2022/05/23 10:27:57;;;;;;;8.50;4.05;;;26.10;71.40;;;;;;5050546;28;20048;-68
2022/05/23 10:30:25;;;;;;;9.80;4.28;;;26.50;72.30;;;;;;5067556;28;20045;-68
2022/05/23 10:32:59;;;;;;;9.73;4.20;;;26.30;71.50;;;;;;5086314;28;20055;-68
2022/05/23 10:35:29;;;;;;;13.73;4.70;;;26.10;71.70;;;;;;5090048;28;20056;-68
2022/05/23 10:42:07;;;;;;;8.98;4.18;;;26.20;71.20;;;;;;5107522;28;20483;-69
2022/05/23 10:43:27;;;;;;;6.93;4.32;;;26.30;71.70;;;;;;5074360;28;20053;-68
2022/05/23 10:45:55;;;;;;;9.30;4.38;;;26.10;71.10;;;;;;5090607;28;20048;-68
2022/05/23 10:48:36;;;;;;;7.72;4.43;;;26.10;71.70;;;;;;5073076;28;20051;-68
2022/05/23 10:51:14;;;;;;;8.25;4.40;;;25.80;70.10;;;;;;5075082;28;20040;-68
2022/05/23 10:54:18;;;;;;;7.95;4.30;;;26.20;71.70;;;;;;5089759;28;20044;-66
2022/05/23 10:57:03;;;;;;;9.15;4.28;;;26.40;70.50;;;;;;5107698;28;20037;-65
2022/05/23 10:59:51;;;;;;;7.53;4.20;;;26.10;70.70;;;;;;5073813;28;20511;-64
2022/05/23 11:02:31;;;;;;;7.30;3.53;;;26.10;70.10;;;;;;5084236;28;20075;-67
2022/05/23 11:05:09;;;;;;;8.05;3.25;;;26.40;70.10;;;;;;5073017;28;20061;-66
2022/05/23 11:08:00;;;;;;;7.90;3.25;;;26.00;69.80;;;;;;5072057;28;20055;-66
2022/05/23 11:10:47;;;;;;;7.50;3.53;;;26.30;71.30;;;;;;5085232;28;20040;-65
2022/05/23 11:13:21;;;;;;;8.48;3.80;;;26.20;69.40;;;;;;5083331;28;20049;-66
2022/05/23 11:16:06;;;;;;;9.13;3.95;;;26.20;70.50;;;;;;5073266;28;20044;-72
2022/05/23 11:18:51;;;;;;;10.50;3.67;;;26.20;70.60;;;;;;5074548;28;20048;-72
2022/05/23 11:21:26;;;;;;;7.88;4.05;;;26.20;70.90;;;;;;5069222;28;20052;-72
2022/05/23 11:24:13;;;;;;;8.07;3.60;;;26.10;70.40;;;;;;5067874;28;20052;-73
2022/05/23 11:26:48;;;;;;;10.00;3.60;;;26.30;70.40;;;;;;5072906;28;20409;-73
2022/05/23 11:35:10;;;;;;;6.43;3.45;;;26.30;70.40;;;;;;5101808;28;20048;-65
2022/05/23 11:37:43;;;;;;;6.75;3.30;;;26.10;70.70;;;;;;5052400;28;20056;-65
2022/05/23 11:40:12;;;;;;;9.35;3.70;;;26.00;70.20;;;;;;5069579;28;20045;-64
2022/05/23 11:42:55;;;;;;;8.60;3.50;;;26.30;70.10;;;;;;5089215;28;20044;-64
2022/05/23 11:48:34;;;;;;;6.63;2.90;;;26.10;69.00;;;;;;5073928;28;20044;-64
2022/05/23 11:51:27;;;;;;;7.50;3.38;;;26.20;68.70;;;;;;5074035;28;20055;-64
2022/05/23 11:54:31;;;;;;;7.82;3.17;;;26.10;68.40;;;;;;5071216;28;20408;-66
2022/05/23 11:56:59;;;;;;;8.32;3.65;;;26.10;68.50;;;;;;5069512;28;20041;-64
2022/05/23 11:59:25;;;;;;;8.32;3.50;;;26.20;69.90;;;;;;5073781;28;20048;-72
2022/05/23 12:02:10;;;;;;;6.63;3.33;;;26.30;70.10;;;;;;5074125;28;20083;-72
2022/05/23 12:04:51;;;;;;;7.32;3.10;;;26.40;70.30;;;;;;5073487;28;20055;-70
2022/05/23 12:07:43;;;;;;;5.50;2.95;;;26.40;70.50;;;;;;5106415;28;20052;-72
2022/05/23 12:10:21;;;;;;;9.00;3.92;;;25.90;68.90;;;;;;5072489;28;20053;-70
2022/05/23 12:12:48;;;;;;;7.75;3.30;;;26.10;70.50;;;;;;5104176;28;20051;-71
2022/05/23 12:15:42;;;;;;;5.70;3.15;;;26.30;70.40;;;;;;5071166;28;20037;-70
2022/05/23 12:18:09;;;;;;;5.53;2.97;;;26.10;69.30;;;;;;5072727;28;20070;-70
2022/05/23 12:20:49;;;;;;;6.28;2.75;;;26.30;70.60;;;;;;5055246;28;20105;-70
2022/05/23 12:23:37;;;;;;;21.70;4.43;;;26.20;70.70;;;;;;5054851;28;20048;-69
2022/05/23 12:26:12;;;;;;;12.80;3.53;;;26.20;69.20;;;;;;5098016;28;20101;-72
2022/05/23 12:28:50;;;;;;;9.00;3.13;;;26.40;69.30;;;;;;5067596;28;20106;-70
2022/05/23 12:31:18;;;;;;;11.82;3.45;;;26.10;69.10;;;;;;5081348;28;20048;-72
2022/05/23 12:34:08;;;;;;;21.90;3.95;;;26.10;70.50;;;;;;5019228;28;20162;-73
2022/05/23 12:37:02;;;;;;;7.45;3.03;;;26.30;69.40;;;;;;5029536;28;20061;-71
2022/05/23 12:39:31;;;;;;;9.82;3.55;;;26.30;69.00;;;;;;5063848;28;20048;-72
2022/05/23 12:42:06;;;;;;;6.43;2.95;;;26.20;70.40;;;;;;5105556;28;20398;-71
2022/05/23 12:44:40;;;;;;;10.88;3.38;;;26.20;69.10;;;;;;5049277;28;20040;-71
2022/05/23 12:47:24;;;;;;;7.28;2.90;;;26.10;70.60;;;;;;5054746;28;20044;-71
2022/05/23 12:50:10;;;;;;;9.90;3.65;;;26.40;69.40;;;;;;5105383;28;20052;-71
2022/05/23 12:53:01;;;;;;;10.25;3.30;;;26.30;71.10;;;;;;5087643;28;20036;-71
2022/05/23 12:55:54;;;;;;;7.50;3.28;;;26.20;69.50;;;;;;5104938;28;20044;-71
2022/05/23 12:58:38;;;;;;;;;;;26.30;69.70;;;;;;5101882;28;20052;-71
2022/05/23 13:01:07;;;;;;;6.78;2.97;;;26.10;69.70;;;;;;5105498;28;19943;-72
2022/05/23 13:03:52;;;;;;;5.78;3.22;;;26.30;71.00;;;;;;5070889;28;20109;-71
2022/05/23 13:06:25;;;;;;;5.78;3.28;;;26.10;69.90;;;;;;5105272;28;20481;-71
2022/05/23 13:09:00;;;;;;;6.60;2.95;;;26.10;69.40;;;;;;5088600;28;20071;-72
2022/05/23 13:11:38;;;;;;;12.30;3.28;;;26.20;71.40;;;;;;5062058;28;20110;-73
2022/05/23 13:14:04;;;;;;;9.55;3.40;;;26.10;71.40;;;;;;5049022;28;20102;-73
2022/05/23 13:16:38;;;;;;;7.82;3.40;;;26.20;70.90;;;;;;5070879;28;20147;-73
2022/05/23 13:22:10;;;;;;;5.30;3.15;;;26.10;71.30;;;;;;5071324;28;20052;-70
2022/05/23 13:25:02;;;;;;;7.90;3.22;;;26.20;71.20;;;;;;5102486;28;20045;-70
2022/05/23 13:27:37;;;;;;;11.63;3.97;;;26.00;71.20;;;;;;5072248;28;20056;-62
2022/05/23 13:30:03;;;;;;;9.75;3.35;;;26.00;69.70;;;;;;5070476;28;20057;-63
2022/05/23 13:32:28;;;;;;;7.63;3.25;;;25.80;70.50;;;;;;5104349;28;20508;-71
2022/05/23 13:34:59;;;;;;;8.27;3.50;;;26.10;71.10;;;;;;5070643;28;20044;-72
2022/05/23 13:37:26;;;;;;;6.18;3.00;;;26.20;70.00;;;;;;5065007;28;20190;-73
2022/05/23 13:39:52;;;;;;;5.97;3.33;;;26.10;71.60;;;;;;5086619;28;20064;-73
2022/05/23 13:42:19;;;;;;;9.32;3.60;;;26.00;71.20;;;;;;5071275;28;20458;-73
2022/05/23 13:44:45;;;;;;;8.48;3.25;;;26.00;71.00;;;;;;5104834;28;20394;-72
2022/05/23 13:47:13;;;;;;;7.55;3.70;;;26.10;71.20;;;;;;5070505;28;20055;-73
2022/05/23 13:49:42;;;;;;;5.35;3.08;;;26.10;71.40;;;;;;5102632;28;20037;-73
2022/05/23 13:52:10;;;;;;;6.65;2.90;;;26.10;71.40;;;;;;5036613;28;20040;-67
2022/05/23 13:54:49;;;;;;;8.75;3.58;;;26.00;71.30;;;;;;5087978;28;20119;-66
2022/05/23 13:57:29;;;;;;;6.25;3.22;;;26.00;70.10;;;;;;5085795;28;20434;-67
2022/05/23 14:00:05;;;;;;;11.63;3.67;;;26.10;70.20;;;;;;5086904;28;20401;-67
2022/05/23 14:02:38;;;;;;;6.65;3.22;;;26.00;69.80;;;;;;5086041;28;20044;-67
2022/05/23 14:05:04;;;;;;;8.27;3.38;;;25.90;71.60;;;;;;5104729;28;20044;-64